Terminal Aerodrome Forecast
Issued by NWS

Home | Current Version | Previous Version | Text Only | Print | Product List | Glossary On
Versions: 1 2 3 4 5 6 7 8 9 10 11 12 13 14 15 16 17 18 19
449
FTUS43 KGRB 200554
TAFMTW
TAF
KMTW 200554Z 2006/2106 11005KT P6SM SCT250 WS005/13025KT
     FM201100 10006KT 6SM BR BKN120 WS006/15030KT
     FM201500 13010G18KT 5SM BR SCT012 BKN120
     FM202100 14014G23KT 2SM -SHRA BR BKN012=

USA.gov is the U.S. government's official web portal to all federal, state and local government web resources and services.